createdAt,value
2023-02-19T00:00:26.447Z,99405.71
2023-02-19T00:05:49.531Z,99402.12
2023-02-19T00:10:53.299Z,99399.75
2023-02-19T00:15:56.684Z,99405.43
2023-02-19T00:20:59.443Z,99406.30
2023-02-19T00:26:17.250Z,99410.08
2023-02-19T00:31:25.680Z,99415.23
2023-02-19T00:36:29.444Z,99413.69
2023-02-19T00:41:32.759Z,99407.17
2023-02-19T00:46:39.041Z,99404.42
2023-02-19T00:51:41.814Z,99407.86
2023-02-19T00:56:45.101Z,99411.30
2023-02-19T01:01:49.828Z,99421.08
2023-02-19T01:06:52.732Z,99424.36
2023-02-19T01:11:55.530Z,99436.19
2023-02-19T01:16:58.530Z,99431.73
2023-02-19T01:22:01.268Z,99429.16
2023-02-19T01:27:04.140Z,99428.82
2023-02-19T01:32:07.096Z,99432.42
2023-02-19T01:37:12.137Z,99421.27
2023-02-19T01:42:16.981Z,99424.70
2023-02-19T01:47:20.438Z,99427.10
2023-02-19T01:52:26.444Z,99414.75
2023-02-19T01:57:39.244Z,99413.73
2023-02-19T02:02:45.183Z,99422.61
2023-02-19T02:08:06.470Z,99419.53
2023-02-19T02:13:09.324Z,99414.90
2023-02-19T02:18:23.928Z,99415.91
2023-02-19T02:23:56.455Z,99410.42
2023-02-19T02:29:12.496Z,99411.27
2023-02-19T02:34:21.947Z,99414.48
2023-02-19T02:39:28.318Z,99418.58
2023-02-19T02:44:35.792Z,99425.95
2023-02-19T02:49:59.066Z,99427.14
2023-02-19T02:55:05.025Z,99421.13
2023-02-19T03:00:08.672Z,99416.46
2023-02-19T03:05:42.617Z,99413.70
2023-02-19T03:10:56.906Z,99412.15
2023-02-19T03:16:24.914Z,99412.49
2023-02-19T03:21:28.945Z,99410.76
2023-02-19T03:26:34.212Z,99401.63
2023-02-19T03:31:39.881Z,99412.62
2023-02-19T03:36:46.154Z,99407.48
2023-02-19T03:42:14.792Z,99405.94
2023-02-19T03:47:27.319Z,99409.21
2023-02-19T03:52:41.940Z,99407.78
2023-02-19T03:57:51.136Z,99403.98
2023-02-19T04:03:01.448Z,99400.20
2023-02-19T04:08:11.316Z,99396.42
2023-02-19T04:13:24.732Z,99394.86
2023-02-19T04:18:33.533Z,99392.27
2023-02-19T04:23:42.541Z,99393.96
2023-02-19T04:28:45.390Z,99396.02
2023-02-19T04:33:48.124Z,99388.45
2023-02-19T04:38:50.869Z,99390.02
2023-02-19T04:43:53.714Z,99390.53
2023-02-19T04:48:56.587Z,99388.64
2023-02-19T04:53:59.407Z,99384.53
2023-02-19T04:59:02.184Z,99384.05
2023-02-19T05:04:05.429Z,99378.56
2023-02-19T05:09:08.870Z,99379.95
2023-02-19T05:14:11.632Z,99374.15
2023-02-19T05:19:14.435Z,99375.20
2023-02-19T05:24:17.162Z,99375.90
2023-02-19T05:29:20.011Z,99375.05
2023-02-19T05:34:22.822Z,99372.66
2023-02-19T05:39:25.618Z,99371.11
2023-02-19T05:44:28.461Z,99379.02
2023-02-19T05:49:31.198Z,99378.17
2023-02-19T05:54:33.941Z,99386.08
2023-02-19T05:59:36.730Z,99385.89
2023-02-19T06:04:39.535Z,99392.41
2023-02-19T06:09:42.513Z,99395.16
2023-02-19T06:14:45.354Z,99399.96
2023-02-19T06:19:48.118Z,99400.64
2023-02-19T06:24:50.895Z,99406.65
2023-02-19T06:29:53.779Z,99412.31
2023-02-19T06:34:56.589Z,99416.05
2023-02-19T06:39:59.322Z,99422.38
2023-02-19T06:45:02.090Z,99425.60
2023-02-19T06:50:05.188Z,99431.92
2023-02-19T06:55:09.280Z,99430.36
2023-02-19T07:00:12.391Z,99432.55
2023-02-19T07:05:15.161Z,99433.31
2023-02-19T07:10:18.045Z,99438.27
2023-02-19T07:15:20.776Z,99446.16
2023-02-19T07:20:23.583Z,99449.40
2023-02-19T07:25:26.581Z,99458.80
2023-02-19T07:30:29.576Z,99464.73
2023-02-19T07:35:33.074Z,99470.71
2023-02-19T07:40:37.012Z,99478.25
2023-02-19T07:45:39.775Z,99480.33
2023-02-19T07:50:42.658Z,99481.66
2023-02-19T07:55:46.058Z,99488.02
2023-02-19T08:00:48.863Z,99485.92
2023-02-19T08:05:53.861Z,99489.98
2023-02-19T08:11:19.063Z,99495.09
2023-02-19T08:16:33.475Z,99500.70
2023-02-19T08:21:44.406Z,99514.70
2023-02-19T08:26:47.723Z,99516.71
2023-02-19T08:31:50.680Z,99514.19
2023-02-19T08:36:53.583Z,99515.36
2023-02-19T08:41:57.742Z,99520.91
2023-02-19T08:47:00.473Z,99526.55
2023-02-19T08:52:03.254Z,99533.42
2023-02-19T08:57:07.411Z,99541.45
2023-02-19T09:02:10.574Z,99544.55
2023-02-19T09:07:13.509Z,99550.73
2023-02-19T09:12:18.727Z,99557.08
2023-02-19T09:17:22.656Z,99552.53
2023-02-19T09:22:26.757Z,99556.63
2023-02-19T09:27:32.302Z,99560.57
2023-02-19T09:32:35.064Z,99560.87
2023-02-19T09:37:40.569Z,99562.46
2023-02-19T09:42:43.757Z,99566.05
2023-02-19T09:47:47.412Z,99568.52
2023-02-19T09:52:56.449Z,99569.20
2023-02-19T09:58:02.362Z,99582.50
2023-02-19T10:03:14.893Z,99581.22
2023-02-19T10:08:21.703Z,99587.67
2023-02-19T10:13:29.391Z,99588.30
2023-02-19T10:18:43.944Z,99593.31
2023-02-19T10:23:51.501Z,99601.82
2023-02-19T10:28:55.557Z,99606.95
2023-02-19T10:34:02.096Z,99614.88
2023-02-19T10:39:22.313Z,99613.08
2023-02-19T10:49:37.418Z,99617.57
2023-02-19T10:54:40.972Z,99621.59
2023-02-19T10:59:53.282Z,99625.86
2023-02-19T11:05:04.131Z,99628.20
2023-02-19T11:10:22.082Z,99642.92
2023-02-19T11:15:50.037Z,99641.80
2023-02-19T11:21:02.921Z,99653.02
2023-02-19T11:26:21.862Z,99659.02
2023-02-19T11:31:33.225Z,99672.75
2023-02-19T11:36:37.782Z,99684.59
2023-02-19T11:42:22.476Z,99692.11
2023-02-19T11:47:48.925Z,99708.84
2023-02-19T11:53:16.812Z,99710.57
2023-02-19T11:58:48.869Z,99715.34
2023-02-19T12:04:26.131Z,99731.56
2023-02-19T12:09:29.077Z,99736.38
2023-02-19T12:15:24.324Z,99731.33
2023-02-19T12:20:52.778Z,99731.14
2023-02-19T12:26:10.619Z,99748.90
2023-02-19T12:31:49.657Z,99754.80
2023-02-19T12:37:23.296Z,99764.51
2023-02-19T12:43:03.301Z,99772.74
2023-02-19T12:48:30.287Z,99770.83
2023-02-19T12:53:36.101Z,99770.94
2023-02-19T12:58:45.609Z,99770.56
2023-02-19T13:03:54.039Z,99790.09
2023-02-19T13:09:06.841Z,99799.77
2023-02-19T13:14:50.015Z,99798.85
2023-02-19T13:20:00.552Z,99796.66
2023-02-19T13:25:04.858Z,99796.30
2023-02-19T13:30:08.319Z,99802.02
2023-02-19T13:35:32.869Z,99799.80
2023-02-19T13:40:39.525Z,99795.05
2023-02-19T13:45:46.139Z,99794.90
2023-02-19T13:50:49.275Z,99796.02
2023-02-19T13:55:53.089Z,99802.85
2023-02-19T14:01:01.508Z,99812.92
2023-02-19T14:06:12.364Z,99815.81
2023-02-19T14:11:19.844Z,99819.08
2023-02-19T14:16:30.546Z,99819.59
2023-02-19T14:21:39.067Z,99825.93
2023-02-19T14:26:43.343Z,99827.40
2023-02-19T14:31:47.249Z,99831.73
2023-02-19T14:37:01.711Z,99832.73
2023-02-19T14:42:33.490Z,99835.12
2023-02-19T14:47:37.500Z,99848.01
2023-02-19T14:52:46.725Z,99855.42
2023-02-19T14:57:52.873Z,99867.55
2023-02-19T15:02:58.657Z,99878.83
2023-02-19T15:08:07.716Z,99883.67
2023-02-19T15:13:17.867Z,99885.08
2023-02-19T15:18:24.298Z,99885.80
2023-02-19T15:23:30.500Z,99881.34
2023-02-19T15:28:34.624Z,99886.20
2023-02-19T15:33:50.927Z,99891.91
2023-02-19T15:38:57.449Z,99906.73
2023-02-19T15:44:12.960Z,99907.94
2023-02-19T15:49:23.848Z,99921.55
2023-02-19T15:54:53.137Z,99929.63
2023-02-19T16:00:12.120Z,99937.16
2023-02-19T16:05:28.922Z,99942.46
2023-02-19T16:10:32.635Z,99946.92
2023-02-19T16:15:36.073Z,99953.42
2023-02-19T16:20:38.914Z,99960.77
2023-02-19T16:25:45.294Z,99966.38
2023-02-19T16:31:01.431Z,99979.07
2023-02-19T16:36:35.873Z,99980.90
2023-02-19T16:42:04.492Z,99984.44
2023-02-19T16:47:34.684Z,99981.98
2023-02-19T16:52:50.814Z,99977.79
2023-02-19T16:57:53.976Z,99990.45
2023-02-19T17:03:03.004Z,100001.55
2023-02-19T17:08:24.114Z,100012.10
2023-02-19T17:13:29.677Z,100016.46
2023-02-19T17:18:33.072Z,100027.86
2023-02-19T17:23:37.238Z,100035.35
2023-02-19T17:28:41.448Z,100036.02
2023-02-19T17:33:44.852Z,100042.52
2023-02-19T17:38:49.178Z,100040.62
2023-02-19T17:43:54.132Z,100039.04
2023-02-19T17:48:57.022Z,100048.27
2023-02-19T17:54:00.138Z,100048.75
2023-02-19T17:59:03.847Z,100053.54
2023-02-19T18:04:06.853Z,100057.13
2023-02-19T18:09:12.556Z,100064.83
2023-02-19T18:14:15.506Z,100076.13
2023-02-19T18:19:18.974Z,100074.18
2023-02-19T18:24:21.816Z,100075.50
2023-02-19T18:29:26.121Z,100077.38
2023-02-19T18:34:28.941Z,100072.42
2023-02-19T18:39:33.226Z,100073.65
2023-02-19T18:44:36.537Z,100066.46
2023-02-19T18:49:39.612Z,100070.94
2023-02-19T18:54:43.378Z,100074.02
2023-02-19T18:59:47.301Z,100084.44
2023-02-19T19:04:52.587Z,100085.23
2023-02-19T19:09:55.513Z,100091.86
2023-02-19T19:14:58.301Z,100080.58
2023-02-19T19:20:01.163Z,100074.66
2023-02-19T19:25:04.402Z,100071.95
2023-02-19T19:30:08.169Z,100067.83
2023-02-19T19:35:11.422Z,100060.79
2023-02-19T19:40:16.220Z,100063.38
2023-02-19T19:45:21.115Z,100075.25
2023-02-19T19:50:23.956Z,100069.17
2023-02-19T19:55:26.826Z,100054.00
2023-02-19T20:00:30.741Z,100053.16
2023-02-19T20:05:33.661Z,100056.79
2023-02-19T20:10:36.458Z,100054.73
2023-02-19T20:15:39.365Z,100062.11
2023-02-19T20:20:42.257Z,100071.23
2023-02-19T20:25:45.110Z,100080.17
2023-02-19T20:30:47.971Z,100084.70
2023-02-19T20:35:50.851Z,100082.55
2023-02-19T20:40:54.750Z,100075.57
2023-02-19T20:45:57.922Z,100084.83
2023-02-19T20:51:01.192Z,100083.80
2023-02-19T20:56:06.242Z,100080.73
2023-02-19T21:01:09.371Z,100077.88
2023-02-19T21:06:12.645Z,100081.86
2023-02-19T21:11:15.904Z,100073.98
2023-02-19T21:16:18.752Z,100077.45
2023-02-19T21:21:25.331Z,100076.23
2023-02-19T21:26:36.836Z,100080.30
2023-02-19T21:31:45.014Z,100085.20
2023-02-19T21:36:48.174Z,100084.27
2023-02-19T21:41:51.216Z,100080.31
2023-02-19T21:46:54.068Z,100075.32
2023-02-19T21:51:57.184Z,100071.68
2023-02-19T21:57:02.796Z,100061.88
2023-02-19T22:02:05.637Z,100056.89
2023-02-19T22:07:10.685Z,100059.63
2023-02-19T22:12:13.579Z,100056.73
2023-02-19T22:17:16.445Z,100053.68
2023-02-19T22:22:19.294Z,100049.40
2023-02-19T22:27:22.420Z,100058.67
2023-02-19T22:32:25.438Z,100058.02
2023-02-19T22:37:29.804Z,100051.72
2023-02-19T22:42:35.018Z,100044.02
2023-02-19T22:47:40.140Z,100046.06
2023-02-19T22:52:42.975Z,100043.45
2023-02-19T22:57:45.903Z,100046.52
2023-02-19T23:02:49.337Z,100040.82
2023-02-19T23:07:52.305Z,100040.45
2023-02-19T23:12:55.169Z,100031.85
2023-02-19T23:17:58.077Z,100025.86
2023-02-19T23:23:00.998Z,100018.31
2023-02-19T23:28:04.165Z,100017.98
2023-02-19T23:33:06.981Z,100013.73
2023-02-19T23:38:09.932Z,100011.35
2023-02-19T23:43:13.234Z,100012.05
2023-02-19T23:48:16.545Z,100012.21
2023-02-19T23:53:19.386Z,100011.31
2023-02-19T23:58:29.277Z,100017.45
